Time;durP1;ratioP1;P1;durP2;ratioP2;P2;SDS_P1;SDS_P2;PMS_P1;PMS_P2;Temp;Humidity;BMP_temperature;BMP_pressure;BME280_temperature;BME280_humidity;BME280_pressure;Samples;Min_cycle;Max_cycle;Signal;HPM_P1;HPM_P2
2023/06/17 00:00:30;;;;;;;5.00;4.20;;;;;;;19.69;76.42;98410.56;105425;1259;72856;-23
2023/06/17 00:02:57;;;;;;;8.80;4.40;;;;;;;19.30;77.49;98408.74;105290;1260;74333;-23
2023/06/17 00:05:24;;;;;;;7.50;4.60;;;;;;;18.96;79.16;98408.02;105375;1262;72662;-23
2023/06/17 00:07:52;;;;;;;5.10;2.60;;;;;;;18.72;80.53;98410.10;105331;1260;61065;-23
2023/06/17 00:10:19;;;;;;;3.40;3.10;;;;;;;19.09;81.04;98405.27;105244;1261;61254;-23
2023/06/17 00:12:48;;;;;;;6.80;3.50;;;;;;;19.59;79.23;98395.55;105494;1259;73041;-23
2023/06/17 00:15:16;;;;;;;6.30;4.20;;;;;;;19.69;78.06;98392.40;105483;1260;74381;-23
2023/06/17 00:17:47;;;;;;;4.90;4.40;;;;;;;19.54;78.27;98388.84;105393;1263;72620;-23
2023/06/17 00:20:14;;;;;;;5.00;4.30;;;;;;;19.23;79.51;98388.21;105388;1257;61148;-23
2023/06/17 00:22:43;;;;;;;9.70;5.10;;;;;;;19.00;79.43;98386.40;105315;1265;61113;-23
2023/06/17 00:25:12;;;;;;;4.90;2.90;;;;;;;18.79;80.89;98382.91;105153;1263;72580;-23
2023/06/17 00:27:39;;;;;;;5.40;3.20;;;;;;;19.19;80.93;98385.23;105384;1263;74303;-23
2023/06/17 00:30:07;;;;;;;7.00;3.60;;;;;;;19.62;78.04;98381.34;105308;1260;72655;-23
2023/06/17 00:32:35;;;;;;;4.60;3.70;;;;;;;19.59;77.36;98377.31;105152;1259;61164;-23
2023/06/17 00:35:05;;;;;;;5.70;4.50;;;;;;;19.30;78.23;98376.39;104950;1265;61112;-23
2023/06/17 00:37:33;;;;;;;6.50;4.70;;;;;;;19.00;79.28;98375.69;105168;1260;73534;-23
2023/06/17 00:40:00;;;;;;;6.70;5.20;;;;;;;18.74;80.59;98373.06;105471;1259;74782;-23
2023/06/17 00:42:27;;;;;;;3.80;3.20;;;;;;;18.48;82.31;98379.30;105324;1260;72651;-23
2023/06/17 00:44:54;;;;;;;10.30;5.20;;;;;;;18.65;83.67;98377.41;105425;1258;61154;-23
2023/06/17 00:47:21;;;;;;;8.00;5.60;;;;;;;18.99;82.71;98375.40;105388;1262;61181;-23
2023/06/17 00:49:48;;;;;;;9.60;6.40;;;;;;;18.98;82.48;98373.26;105467;1259;72924;-23
2023/06/17 00:52:15;;;;;;;9.10;6.60;;;;;;;18.84;82.64;98367.73;105279;1262;74306;-23
2023/06/17 00:55:02;;;;;;;8.60;6.90;;;;;;;18.66;82.71;98364.79;105344;1259;72529;-23
2023/06/17 00:57:29;;;;;;;8.50;5.60;;;;;;;18.48;83.27;98367.73;105150;1260;61998;-24
2023/06/17 00:59:57;;;;;;;10.50;7.30;;;;;;;18.83;82.90;98365.48;105287;1262;61181;-23
2023/06/17 01:02:25;;;;;;;15.60;10.10;;;;;;;19.18;81.52;98366.55;105386;1258;72950;-23
2023/06/17 01:04:52;;;;;;;16.40;10.20;;;;;;;19.14;81.35;98363.05;105243;1262;74304;-23
2023/06/17 01:07:59;;;;;;;17.80;10.70;;;;;;;18.83;83.34;98361.07;105270;1263;73218;-24
2023/06/17 01:10:54;;;;;;;14.30;11.10;;;;;;;18.51;83.68;98358.06;105197;1258;61085;-23
2023/06/17 01:13:26;;;;;;;12.80;8.10;;;;;;;18.32;85.14;98359.76;105154;1263;61189;-24
2023/06/17 01:15:54;;;;;;;13.80;9.10;;;;;;;18.77;84.27;98359.17;105245;1265;73042;-24
2023/06/17 01:18:22;;;;;;;11.80;9.30;;;;;;;19.06;82.71;98355.88;105268;1259;73148;-24
2023/06/17 01:20:52;;;;;;;13.30;9.70;;;;;;;19.00;81.97;98354.95;105222;1258;72640;-23
2023/06/17 01:23:32;;;;;;;11.90;9.10;;;;;;;18.78;81.83;98354.14;104990;1260;61129;-23
2023/06/17 01:26:01;;;;;;;9.90;7.80;;;;;;;18.55;81.32;98353.48;105007;1265;61126;-23
2023/06/17 01:28:29;;;;;;;9.10;5.50;;;;;;;18.26;83.14;98351.64;104957;1258;73262;-23
2023/06/17 01:30:56;;;;;;;10.60;6.10;;;;;;;18.57;82.69;98351.14;105355;1262;73465;-23
2023/06/17 01:33:24;;;;;;;11.20;6.50;;;;;;;18.99;80.91;98347.45;105209;1264;72631;-23
2023/06/17 01:35:58;;;;;;;9.80;7.20;;;;;;;19.00;80.40;98352.77;105315;1263;61216;-24
2023/06/17 01:38:30;;;;;;;9.20;6.70;;;;;;;18.77;80.06;98345.27;105252;1265;61150;-25
2023/06/17 01:41:02;;;;;;;9.90;7.10;;;;;;;18.45;80.55;98339.96;105204;1265;71842;-23
2023/06/17 01:43:31;;;;;;;8.10;6.30;;;;;;;18.18;80.76;98341.42;105129;1266;74316;-23
2023/06/17 01:45:58;;;;;;;6.10;4.30;;;;;;;17.95;80.81;98341.63;105349;1262;72554;-23
2023/06/17 01:48:25;;;;;;;7.90;5.60;;;;;;;18.32;81.30;98336.92;105188;1259;61078;-23
2023/06/17 01:50:52;;;;;;;9.90;5.70;;;;;;;18.75;80.26;98337.58;105203;1265;61179;-23
2023/06/17 01:53:19;;;;;;;11.80;6.60;;;;;;;18.74;79.32;98332.14;105046;1265;73455;-23
2023/06/17 01:55:48;;;;;;;8.30;6.80;;;;;;;18.43;82.58;98333.18;105411;1259;73071;-23
2023/06/17 01:58:16;;;;;;;7.90;6.50;;;;;;;18.12;81.05;98334.58;105243;1264;72821;-23
2023/06/17 02:00:43;;;;;;;8.10;6.70;;;;;;;17.87;80.89;98336.45;105361;1262;61041;-23
2023/06/17 02:03:09;;;;;;;7.10;4.50;;;;;;;17.69;81.47;98337.55;105436;1262;61276;-23
2023/06/17 02:05:37;;;;;;;6.00;5.00;;;;;;;18.05;82.16;98335.30;105209;1262;73036;-23
2023/06/17 02:08:05;;;;;;;6.90;5.80;;;;;;;18.42;80.71;98330.75;105228;1262;74357;-23
2023/06/17 02:10:33;;;;;;;7.00;6.30;;;;;;;18.38;80.61;98338.55;105200;1258;73225;-23
2023/06/17 02:13:01;;;;;;;8.80;7.30;;;;;;;18.18;82.18;98336.67;105175;1259;61203;-23
2023/06/17 02:15:28;;;;;;;8.20;7.50;;;;;;;17.83;85.97;98340.25;105010;1265;61229;-23
2023/06/17 02:17:56;;;;;;;8.20;5.10;;;;;;;17.52;89.33;98343.17;105342;1260;73548;-23
2023/06/17 02:20:23;;;;;;;7.60;6.00;;;;;;;17.97;88.13;98337.86;105223;1266;74190;-22
2023/06/17 02:22:50;;;;;;;12.30;6.30;;;;;;;18.39;85.57;98329.76;105494;1258;72545;-23
2023/06/17 02:25:17;;;;;;;7.90;6.90;;;;;;;18.36;85.11;98328.84;105443;1258;61084;-23
2023/06/17 02:27:44;;;;;;;9.70;6.80;;;;;;;18.30;84.57;98328.41;105454;1262;61119;-23
2023/06/17 02:30:12;;;;;;;9.10;7.40;;;;;;;18.19;84.17;98328.48;105337;1258;73014;-23
2023/06/17 02:32:40;;;;;;;5.00;4.50;;;;;;;18.03;85.16;98328.75;105108;1265;75623;-23
2023/06/17 02:35:08;;;;;;;7.00;5.50;;;;;;;18.42;84.31;98331.34;105072;1264;72695;-23
2023/06/17 02:37:36;;;;;;;6.60;5.90;;;;;;;18.94;81.02;98329.67;105220;1257;61176;-24
2023/06/17 02:40:07;;;;;;;6.90;6.20;;;;;;;18.97;79.22;98329.57;104974;1260;61113;-23
2023/06/17 02:42:38;;;;;;;7.80;6.60;;;;;;;18.73;78.76;98333.50;105325;1264;73095;-23
2023/06/17 02:45:07;;;;;;;10.40;7.20;;;;;;;18.40;78.79;98335.00;105250;1259;74246;-23
2023/06/17 02:47:34;;;;;;;7.80;7.00;;;;;;;18.09;79.63;98334.75;105232;1260;72844;-23
2023/06/17 02:50:01;;;;;;;4.40;4.00;;;;;;;17.82;80.83;98333.14;105372;1263;61863;-23
2023/06/17 02:52:30;;;;;;;5.70;5.10;;;;;;;18.27;81.11;98329.02;105338;1265;61185;-23
2023/06/17 02:54:58;;;;;;;6.00;5.50;;;;;;;18.93;79.50;98332.39;105346;1263;73104;-24
2023/06/17 02:57:25;;;;;;;8.40;6.50;;;;;;;19.16;78.43;98331.08;105480;1260;74263;-23
2023/06/17 02:59:52;;;;;;;7.90;6.60;;;;;;;19.20;77.12;98331.25;105297;1264;72424;-23
2023/06/17 03:02:19;;;;;;;9.40;7.20;;;;;;;19.18;76.72;98330.31;105187;1260;61240;-23
2023/06/17 03:04:48;;;;;;;9.00;8.10;;;;;;;19.15;77.15;98330.83;105314;1260;61171;-23
2023/06/17 03:07:16;;;;;;;6.50;5.20;;;;;;;19.20;77.71;98329.30;105188;1260;73797;-23
2023/06/17 03:09:45;;;;;;;7.70;6.30;;;;;;;19.91;77.27;98326.31;105432;1260;74092;-23
2023/06/17 03:12:12;;;;;;;6.70;6.10;;;;;;;20.70;74.42;98328.73;105623;1259;72724;-23
2023/06/17 03:14:41;;;;;;;7.50;6.80;;;;;;;20.99;72.70;98326.11;105276;1254;61185;-23
2023/06/17 03:17:12;;;;;;;7.80;7.10;;;;;;;21.03;71.64;98326.23;105478;1259;61178;-23
2023/06/17 03:19:40;;;;;;;8.50;7.70;;;;;;;20.99;71.61;98329.91;105668;1260;73534;-23
2023/06/17 03:23:40;;;;;;;10.50;8.10;;;;;;;20.82;72.32;98331.63;102609;1292;600214;-22
2023/06/17 03:26:09;;;;;;;5.80;4.90;;;;;;;20.60;73.23;98332.33;104866;1266;61165;-22
2023/06/17 03:28:37;;;;;;;6.30;5.70;;;;;;;21.22;72.07;98333.85;104833;1272;61229;-23
2023/06/17 03:38:41;;;;;;;9.90;7.90;;;;;;;22.00;69.80;98329.33;102691;1292;599869;-24
2023/06/17 03:47:16;;;;;;;7.50;5.30;;;;;;;21.42;71.67;98331.27;102605;1292;601511;-22
2023/06/17 03:49:45;;;;;;;8.50;6.90;;;;;;;22.00;70.83;98328.46;104832;1267;61277;-22
2023/06/17 03:52:12;;;;;;;9.10;8.10;;;;;;;22.54;67.90;98328.14;104734;1267;61205;-22
2023/06/17 03:54:40;;;;;;;12.00;8.20;;;;;;;22.86;67.35;98325.41;104731;1273;70992;-22
2023/06/17 03:57:08;;;;;;;11.10;8.70;;;;;;;22.81;66.86;98322.45;104680;1267;74319;-22
2023/06/17 03:59:37;;;;;;;11.10;8.90;;;;;;;22.77;67.31;98325.23;108552;1267;71541;-23
2023/06/17 04:02:04;;;;;;;11.70;9.50;;;;;;;22.65;67.72;98329.45;106697;1265;2523921;-23
2023/06/17 04:04:34;;;;;;;11.80;9.00;;;;;;;22.50;68.45;98328.88;108690;1265;59987;-23
2023/06/17 04:07:02;;;;;;;10.10;9.10;;;;;;;22.61;67.95;98326.50;108640;1266;73321;-23
2023/06/17 04:09:32;;;;;;;11.70;9.10;;;;;;;22.45;68.20;98326.34;108659;1265;73193;-22
2023/06/17 04:12:00;;;;;;;6.50;5.70;;;;;;;22.52;68.97;98327.61;108614;1265;72734;-23
2023/06/17 04:14:27;;;;;;;7.30;6.30;;;;;;;23.32;67.44;98323.42;108589;1265;60254;-23
2023/06/17 04:16:56;;;;;;;10.40;8.10;;;;;;;24.05;64.69;98322.83;108608;1266;59229;-23
2023/06/17 04:19:24;;;;;;;9.10;8.10;;;;;;;24.11;63.18;98320.20;109234;1253;73017;-23
2023/06/17 04:21:52;;;;;;;10.00;7.90;;;;;;;23.96;63.17;98321.14;109210;1253;74790;-23
2023/06/17 04:24:20;;;;;;;9.90;8.40;;;;;;;24.07;63.72;98320.06;109363;1253;71521;-23
2023/06/17 04:26:52;;;;;;;10.30;9.20;;;;;;;24.10;63.07;98319.55;109350;1256;58939;-23
2023/06/17 04:29:21;;;;;;;12.30;8.60;;;;;;;23.89;63.21;98319.31;109272;1253;60008;-23
2023/06/17 04:31:49;;;;;;;9.50;8.50;;;;;;;23.85;63.47;98319.50;109390;1256;71915;-23
2023/06/17 04:34:23;;;;;;;12.90;8.80;;;;;;;23.91;63.20;98320.67;109400;1253;74489;-22
2023/06/17 04:36:57;;;;;;;10.90;9.20;;;;;;;23.82;63.28;98321.85;109200;1253;71471;-22
2023/06/17 04:39:27;;;;;;;11.50;8.90;;;;;;;23.69;63.70;98323.69;109319;1254;60043;-23
2023/06/17 04:41:56;;;;;;;10.00;9.00;;;;;;;23.67;63.85;98325.10;109374;1253;60058;-23
2023/06/17 04:44:23;;;;;;;10.90;8.90;;;;;;;23.75;63.73;98319.67;109377;1253;71779;-23
2023/06/17 04:46:51;;;;;;;10.10;8.50;;;;;;;23.74;63.83;98327.69;109271;1253;74285;-23
2023/06/17 04:49:19;;;;;;;9.60;8.60;;;;;;;23.87;63.66;98328.89;109215;1253;72681;-23
2023/06/17 04:51:48;;;;;;;9.60;8.40;;;;;;;23.88;63.48;98323.86;109340;1253;58918;-23
2023/06/17 04:54:16;;;;;;;10.80;8.40;;;;;;;24.04;62.76;98321.91;109419;1254;59144;-23
2023/06/17 04:56:44;;;;;;;14.10;9.50;;;;;;;24.10;62.32;98322.10;109407;1254;71827;-23
2023/06/17 04:59:11;;;;;;;10.30;9.30;;;;;;;24.16;62.16;98327.40;109283;1254;73150;-23
2023/06/17 05:01:39;;;;;;;8.80;8.00;;;;;;;24.27;61.97;98328.64;109276;1253;70939;-23
2023/06/17 05:04:07;;;;;;;8.80;8.00;;;;;;;24.53;61.60;98329.73;109255;1256;60108;-24
2023/06/17 05:06:35;;;;;;;9.40;8.50;;;;;;;24.73;60.38;98331.38;109292;1254;60043;-23
2023/06/17 05:09:03;;;;;;;8.10;7.40;;;;;;;24.88;60.61;98330.42;109403;1254;73012;-23
2023/06/17 05:11:31;;;;;;;8.60;7.50;;;;;;;24.97;59.60;98330.43;109298;1253;74339;-23
2023/06/17 05:13:59;;;;;;;8.40;7.30;;;;;;;25.19;58.10;98332.80;109236;1254;72679;-23
2023/06/17 05:16:27;;;;;;;8.00;7.30;;;;;;;25.33;57.37;98332.41;109243;1254;60038;-23
2023/06/17 05:18:55;;;;;;;8.30;7.10;;;;;;;25.35;57.33;98334.27;109418;1253;60034;-23
2023/06/17 05:21:22;;;;;;;8.60;7.10;;;;;;;25.23;56.77;98335.01;109277;1253;71552;-23
2023/06/17 05:23:51;;;;;;;7.80;7.10;;;;;;;25.25;56.83;98336.98;109291;1253;73629;-23
2023/06/17 05:26:19;;;;;;;10.30;6.60;;;;;;;25.26;57.17;98338.30;109263;1254;71694;-23
2023/06/17 05:28:47;;;;;;;9.40;6.80;;;;;;;25.46;55.95;98340.45;109290;1254;58951;-23
2023/06/17 05:31:15;;;;;;;7.30;5.90;;;;;;;25.52;54.85;98345.55;109300;1253;60201;-23
2023/06/17 05:33:43;;;;;;;5.80;5.30;;;;;;;25.55;53.94;98342.95;109272;1254;73051;-23
2023/06/17 05:36:11;;;;;;;6.90;5.30;;;;;;;25.73;51.64;98345.23;109417;1254;74552;-23
2023/06/17 05:38:38;;;;;;;7.40;4.90;;;;;;;25.89;50.40;98342.91;109398;1254;71456;-23
2023/06/17 05:41:06;;;;;;;6.50;4.50;;;;;;;26.03;49.39;98344.83;109254;1254;60082;-23
2023/06/17 05:43:33;;;;;;;5.90;4.50;;;;;;;26.15;48.15;98347.16;109305;1254;58915;-23
2023/06/17 05:46:01;;;;;;;8.50;4.50;;;;;;;26.31;47.40;98344.77;109254;1254;71861;-23
2023/06/17 05:48:29;;;;;;;7.10;4.50;;;;;;;26.53;47.02;98347.31;109263;1254;74306;-23
2023/06/17 05:50:56;;;;;;;7.70;4.20;;;;;;;26.58;45.47;98344.60;109419;1253;71787;-23
2023/06/17 05:53:24;;;;;;;7.00;4.20;;;;;;;26.71;46.52;98348.45;109241;1253;60070;-23
2023/06/17 05:55:52;;;;;;;9.80;5.00;;;;;;;26.71;44.85;98350.90;109347;1254;59172;-23
2023/06/17 05:58:19;;;;;;;6.40;3.80;;;;;;;26.78;45.31;98353.40;109321;1254;73058;-23
2023/06/17 06:00:54;;;;;;;5.90;4.20;;;;;;;26.85;43.86;98352.17;109325;1254;73039;-23
2023/06/17 06:03:21;;;;;;;6.80;4.20;;;;;;;26.96;44.05;98354.91;109368;1254;72709;-23
2023/06/17 06:05:49;;;;;;;9.50;4.50;;;;;;;27.14;45.23;98358.86;109294;1256;60085;-23
2023/06/17 06:08:18;;;;;;;5.20;4.20;;;;;;;27.35;43.45;98354.91;109249;1254;60000;-23
2023/06/17 06:10:46;;;;;;;6.50;4.40;;;;;;;27.42;43.59;98355.13;109337;1254;73121;-25
2023/06/17 06:13:13;;;;;;;7.70;6.00;;;;;;;27.57;43.57;98360.44;109205;1254;74363;-23
2023/06/17 06:15:41;;;;;;;9.30;8.20;;;;;;;27.77;42.94;98359.90;109323;1254;71487;-23
2023/06/17 06:18:08;;;;;;;4.50;4.10;;;;;;;27.94;41.79;98358.80;109360;1254;59142;-23
2023/06/17 06:20:36;;;;;;;8.20;4.50;;;;;;;28.06;41.31;98360.33;109323;1254;58814;-23
2023/06/17 06:23:04;;;;;;;5.70;5.10;;;;;;;28.18;41.46;98362.90;109343;1254;71753;-23
2023/06/17 06:25:31;;;;;;;5.90;3.90;;;;;;;28.28;40.64;98362.63;109340;1254;73039;-23
2023/06/17 06:27:59;;;;;;;4.50;3.60;;;;;;;28.32;40.73;98363.41;109296;1254;71436;-23
2023/06/17 06:30:27;;;;;;;6.00;2.90;;;;;;;28.34;41.03;98366.27;109304;1254;58829;-23
2023/06/17 06:32:55;;;;;;;3.90;3.30;;;;;;;28.33;39.09;98365.45;109371;1254;60035;-23
2023/06/17 06:35:23;;;;;;;4.20;2.60;;;;;;;28.41;39.74;98366.95;109245;1254;73147;-23
2023/06/17 06:37:51;;;;;;;7.20;5.10;;;;;;;28.55;38.90;98364.98;109306;1254;74306;-24
2023/06/17 06:40:19;;;;;;;4.70;3.10;;;;;;;28.63;38.33;98373.16;109205;1254;72661;-23
2023/06/17 06:42:47;;;;;;;4.90;3.00;;;;;;;28.76;38.64;98370.08;109292;1256;60080;-23
2023/06/17 06:45:19;;;;;;;4.10;2.70;;;;;;;28.72;37.88;98369.36;109227;1254;58761;-23
2023/06/17 06:47:47;;;;;;;3.80;2.60;;;;;;;28.73;37.54;98369.20;109290;1254;71751;-23
2023/06/17 06:50:14;;;;;;;3.20;2.40;;;;;;;28.74;37.54;98366.34;109341;1254;73145;-23
2023/06/17 06:52:44;;;;;;;4.90;2.90;;;;;;;28.80;37.42;98368.29;109301;1254;72696;-23
2023/06/17 06:55:11;;;;;;;4.50;2.70;;;;;;;28.83;37.23;98368.90;109223;1255;60103;-23
2023/06/17 06:57:39;;;;;;;4.70;3.00;;;;;;;28.85;38.09;98373.82;109139;1255;58757;-23
2023/06/17 07:00:09;;;;;;;5.60;2.40;;;;;;;28.98;38.16;98367.56;109232;1256;71760;-23
2023/06/17 07:02:37;;;;;;;4.50;2.60;;;;;;;29.12;39.03;98367.05;109096;1255;74296;-23
2023/06/17 07:05:05;;;;;;;3.50;2.60;;;;;;;29.19;38.89;98368.14;109080;1257;72634;-23
2023/06/17 07:07:40;;;;;;;3.40;2.60;;;;;;;29.26;38.02;98367.78;109151;1257;58802;-23
2023/06/17 07:10:08;;;;;;;8.30;5.20;;;;;;;29.15;37.90;98371.66;109144;1257;60049;-23
2023/06/17 07:12:36;;;;;;;5.10;3.20;;;;;;;29.07;37.56;98372.24;109129;1256;73119;-23
2023/06/17 07:15:04;;;;;;;4.60;2.60;;;;;;;28.98;37.69;98373.02;109126;1255;74278;-23
2023/06/17 07:17:32;;;;;;;6.30;2.50;;;;;;;29.07;38.93;98373.80;109118;1256;72703;-23
2023/06/17 07:19:59;;;;;;;3.40;2.20;;;;;;;29.28;38.92;98377.44;109167;1255;60086;-23
2023/06/17 07:22:27;;;;;;;3.60;2.60;;;;;;;29.51;38.35;98377.90;109294;1255;58821;-23
2023/06/17 07:24:54;;;;;;;4.80;2.80;;;;;;;29.61;38.21;98376.02;109153;1255;71857;-23
2023/06/17 07:27:22;;;;;;;4.50;2.70;;;;;;;29.46;39.05;98375.75;109108;1258;74322;-23
2023/06/17 07:29:50;;;;;;;7.50;2.80;;;;;;;29.73;39.19;98379.30;109183;1256;72651;-23
2023/06/17 07:32:18;;;;;;;3.30;2.30;;;;;;;29.96;37.68;98381.63;109061;1255;58843;-23
2023/06/17 07:34:45;;;;;;;4.70;2.70;;;;;;;30.11;37.51;98384.15;109152;1256;58801;-23
2023/06/17 07:37:13;;;;;;;4.90;2.70;;;;;;;30.32;35.98;98384.48;109153;1257;62830;-23
2023/06/17 07:39:41;;;;;;;5.40;2.60;;;;;;;30.42;35.50;98382.81;109198;1256;64113;-23
2023/06/17 07:42:08;;;;;;;4.40;2.70;;;;;;;30.37;35.05;98382.33;109107;1257;63724;-23
2023/06/17 07:44:36;;;;;;;4.80;2.20;;;;;;;30.35;34.41;98385.62;109198;1255;58711;-23
2023/06/17 07:47:04;;;;;;;3.40;2.10;;;;;;;30.20;33.42;98383.48;109117;1257;58721;-23
2023/06/17 07:49:32;;;;;;;3.80;2.30;;;;;;;30.11;33.98;98385.96;109193;1255;73089;-23
2023/06/17 07:51:59;;;;;;;5.10;2.50;;;;;;;30.14;33.82;98386.28;109208;1256;64282;-23
2023/06/17 07:54:27;;;;;;;4.30;2.50;;;;;;;30.02;34.00;98390.38;109080;1256;71376;-23
2023/06/17 07:56:54;;;;;;;2.80;2.40;;;;;;;29.95;34.69;98387.72;109042;1256;58838;-23
2023/06/17 07:59:22;;;;;;;5.60;2.80;;;;;;;29.45;33.06;98382.90;109078;1256;60048;-23
2023/06/17 08:01:49;;;;;;;3.40;2.60;;;;;;;29.36;34.48;98386.70;109236;1256;73591;-23
2023/06/17 08:04:17;;;;;;;5.20;2.30;;;;;;;29.25;34.63;98387.73;109133;1256;74380;-23
2023/06/17 08:06:45;;;;;;;5.30;2.40;;;;;;;29.25;36.28;98389.98;109113;1256;71922;-23
2023/06/17 08:09:13;;;;;;;5.80;2.50;;;;;;;29.28;35.03;98391.06;109110;1256;59370;-23
2023/06/17 08:11:40;;;;;;;4.50;2.20;;;;;;;29.27;36.11;98391.91;109124;1256;58733;-23
2023/06/17 08:14:07;;;;;;;5.70;2.20;;;;;;;29.07;36.59;98391.65;109214;1256;73879;-23
2023/06/17 08:16:35;;;;;;;4.80;2.30;;;;;;;29.02;37.58;98391.73;109013;1256;74342;-23
2023/06/17 08:19:03;;;;;;;13.70;2.30;;;;;;;29.11;37.30;98392.83;109194;1256;71431;-23
2023/06/17 08:21:30;;;;;;;3.70;2.40;;;;;;;29.28;36.73;98389.48;109132;1256;59220;-23
2023/06/17 08:23:58;;;;;;;2.90;2.20;;;;;;;29.26;36.80;98386.77;109228;1256;60019;-23
2023/06/17 08:26:25;;;;;;;3.90;2.20;;;;;;;29.54;37.81;98393.23;109206;1256;72955;-24
2023/06/17 08:28:53;;;;;;;7.10;4.20;;;;;;;29.93;35.50;98391.06;109225;1256;74769;-23
2023/06/17 08:31:26;;;;;;;5.90;3.30;;;;;;;30.15;32.85;98389.56;109038;1256;63771;-23
2023/06/17 08:33:53;;;;;;;3.40;2.00;;;;;;;30.27;34.18;98389.38;109078;1257;58751;-23
2023/06/17 08:36:21;;;;;;;4.10;2.40;;;;;;;30.29;34.38;98390.02;109250;1256;58711;-23
2023/06/17 08:38:50;;;;;;;3.20;2.30;;;;;;;30.33;34.56;98392.21;109032;1256;64992;-23
2023/06/17 08:41:17;;;;;;;8.50;2.30;;;;;;;30.38;34.35;98386.46;109095;1256;65617;-23
2023/06/17 08:43:46;;;;;;;3.60;2.10;;;;;;;30.33;34.53;98392.48;109080;1256;63764;-23
2023/06/17 08:46:13;;;;;;;3.00;2.20;;;;;;;30.55;34.53;98393.31;108934;1256;58814;-23
2023/06/17 08:48:42;;;;;;;3.70;2.10;;;;;;;30.61;32.75;98394.48;109051;1256;58730;-23
2023/06/17 08:51:12;;;;;;;3.60;2.00;;;;;;;30.60;32.36;98395.67;108960;1256;64188;-23
2023/06/17 08:53:40;;;;;;;4.70;2.30;;;;;;;30.55;32.11;98395.08;109073;1257;65414;-23
2023/06/17 08:56:08;;;;;;;3.20;2.40;;;;;;;30.49;32.89;98398.42;109012;1257;63746;-23
2023/06/17 08:58:37;;;;;;;5.30;2.40;;;;;;;30.33;33.62;98398.51;109029;1259;60089;-23
2023/06/17 09:01:06;;;;;;;3.00;2.20;;;;;;;30.23;34.18;98400.45;109104;1258;58691;-23
2023/06/17 09:03:36;;;;;;;2.80;2.00;;;;;;;30.16;34.16;98399.66;109004;1257;73934;-23
2023/06/17 09:06:30;;;;;;;3.90;2.10;;;;;;;30.04;33.92;98401.32;109007;1257;65393;-23
2023/06/17 09:08:58;;;;;;;4.00;2.50;;;;;;;30.00;34.19;98403.86;108960;1257;72674;-23
2023/06/17 09:11:26;;;;;;;6.50;2.30;;;;;;;30.04;33.95;98404.44;109037;1257;60109;-23
2023/06/17 09:13:55;;;;;;;2.80;2.20;;;;;;;30.20;34.46;98402.71;108963;1257;58690;-23
2023/06/17 09:16:26;;;;;;;3.90;2.50;;;;;;;30.50;34.67;98403.45;108919;1257;73898;-23
2023/06/17 09:18:58;;;;;;;4.30;2.30;;;;;;;30.61;32.22;98404.10;109036;1257;65729;-23
2023/06/17 09:21:26;;;;;;;4.60;2.40;;;;;;;30.68;32.75;98404.08;108990;1257;62519;-23
2023/06/17 09:23:58;;;;;;;2.40;2.10;;;;;;;30.74;32.57;98403.73;108993;1257;58719;-23
2023/06/17 09:26:28;;;;;;;4.50;2.30;;;;;;;30.78;32.21;98401.64;109022;1258;58839;-23
2023/06/17 09:29:06;;;;;;;3.40;2.40;;;;;;;30.85;32.14;98403.55;108973;1257;65180;-23
2023/06/17 09:31:46;;;;;;;3.10;1.90;;;;;;;31.09;32.88;98402.05;108969;1257;65426;-23
2023/06/17 09:34:14;;;;;;;5.60;1.90;;;;;;;31.54;31.69;98397.44;108998;1258;63750;-23
2023/06/17 09:36:42;;;;;;;8.20;2.20;;;;;;;31.47;31.08;98397.54;109033;1257;58745;-23
2023/06/17 09:39:12;;;;;;;2.70;2.20;;;;;;;31.34;31.73;98398.23;109040;1258;58839;-24
2023/06/17 09:41:41;;;;;;;8.10;2.30;;;;;;;31.47;31.29;98395.93;109089;1258;63629;-23
2023/06/17 09:44:09;;;;;;;2.60;1.60;;;;;;;31.49;31.37;98398.08;108988;1257;65409;-23
2023/06/17 09:46:39;;;;;;;2.70;1.90;;;;;;;31.34;30.00;98398.04;109009;1257;62598;-23
2023/06/17 09:49:09;;;;;;;5.60;2.50;;;;;;;30.64;29.63;98396.33;109082;1257;58808;-23
2023/06/17 09:51:37;;;;;;;3.10;2.40;;;;;;;30.15;31.94;98396.70;109012;1257;60197;-24
2023/06/17 09:54:06;;;;;;;2.90;2.30;;;;;;;30.12;32.54;98393.64;108930;1258;73849;-23
2023/06/17 09:56:34;;;;;;;4.90;2.40;;;;;;;30.70;33.39;98392.52;108954;1257;64115;-23
2023/06/17 09:59:08;;;;;;;3.30;2.20;;;;;;;31.29;31.70;98387.80;108971;1258;62456;-23
2023/06/17 10:01:39;;;;;;;4.50;2.20;;;;;;;31.97;32.03;98382.43;109013;1258;58834;-23
2023/06/17 10:04:07;;;;;;;5.00;2.10;;;;;;;32.72;30.12;98378.73;109026;1258;58855;-24
2023/06/17 10:06:35;;;;;;;3.40;2.30;;;;;;;33.03;30.04;98382.20;109046;1258;63654;-24
2023/06/17 10:09:07;;;;;;;6.10;2.50;;;;;;;33.01;29.32;98379.44;108830;1257;64160;-23
2023/06/17 10:11:35;;;;;;;3.30;2.30;;;;;;;32.84;29.05;98374.84;109001;1258;63822;-23
2023/06/17 10:14:07;;;;;;;6.30;2.80;;;;;;;32.61;29.64;98374.24;109026;1259;58838;-23
2023/06/17 10:16:36;;;;;;;4.90;2.50;;;;;;;32.70;29.56;98377.10;108948;1260;58725;-23
2023/06/17 10:19:05;;;;;;;6.30;2.50;;;;;;;32.87;29.25;98379.66;108864;1259;64946;-23
2023/06/17 10:21:34;;;;;;;4.60;2.10;;;;;;;33.30;27.88;98374.45;108909;1260;64309;-23
2023/06/17 10:24:01;;;;;;;4.40;2.30;;;;;;;33.51;28.27;98374.60;108941;1260;62442;-23
2023/06/17 10:26:30;;;;;;;8.70;2.60;;;;;;;33.59;28.83;98374.79;108968;1257;58831;-23
2023/06/17 10:29:01;;;;;;;4.70;2.70;;;;;;;33.91;28.26;98368.64;109055;1258;58793;-23
2023/06/17 10:31:31;;;;;;;3.90;2.40;;;;;;;33.41;27.33;98367.38;108913;1259;63614;-23
2023/06/17 10:34:01;;;;;;;3.80;2.40;;;;;;;32.87;28.47;98370.85;108908;1260;65419;-23
2023/06/17 10:36:29;;;;;;;4.40;2.40;;;;;;;32.86;29.43;98370.77;109024;1259;63769;-23
2023/06/17 10:39:03;;;;;;;3.30;2.50;;;;;;;32.48;29.16;98373.98;109053;1257;58791;-23
2023/06/17 10:41:41;;;;;;;3.60;2.50;;;;;;;32.10;29.96;98371.18;108870;1260;58731;-23
2023/06/17 10:44:30;;;;;;;4.50;2.50;;;;;;;32.35;28.48;98367.73;108963;1260;63708;-23
2023/06/17 10:46:57;;;;;;;3.50;2.90;;;;;;;32.14;27.98;98365.05;108972;1260;65400;-23
2023/06/17 10:49:25;;;;;;;3.30;2.60;;;;;;;32.06;28.39;98366.11;108956;1258;62689;-23
2023/06/17 10:51:59;;;;;;;5.60;2.50;;;;;;;32.34;28.39;98367.25;109010;1258;58891;-23
2023/06/17 10:54:29;;;;;;;4.70;2.20;;;;;;;32.55;29.65;98369.79;109049;1259;58736;-24
2023/06/17 10:57:04;;;;;;;4.30;2.40;;;;;;;32.37;28.96;98364.69;108856;1259;64935;-24
2023/06/17 10:59:33;;;;;;;3.20;2.30;;;;;;;31.92;28.72;98357.24;108896;1259;65400;-23
2023/06/17 11:02:08;;;;;;;3.60;2.30;;;;;;;31.41;29.31;98355.09;108902;1259;63745;-23
2023/06/17 11:04:42;;;;;;;2.90;2.40;;;;;;;31.41;30.85;98352.73;108787;1265;58762;-24
2023/06/17 11:07:14;;;;;;;3.10;2.50;;;;;;;31.88;30.05;98349.35;108976;1259;58671;-23
2023/06/17 11:09:43;;;;;;;3.90;3.00;;;;;;;32.58;29.58;98348.06;108880;1259;64941;-23
2023/06/17 11:12:16;;;;;;;3.30;2.10;;;;;;;33.04;29.20;98344.94;108914;1259;66792;-23
2023/06/17 11:14:45;;;;;;;3.00;2.70;;;;;;;32.98;28.94;98345.29;108883;1259;63800;-23
2023/06/17 11:17:15;;;;;;;3.20;2.90;;;;;;;33.13;28.98;98344.20;108901;1259;58868;-23
2023/06/17 11:19:47;;;;;;;4.20;2.70;;;;;;;33.45;29.25;98341.81;108922;1259;58852;-23
2023/06/17 11:22:18;;;;;;;2.60;2.40;;;;;;;33.53;27.46;98338.64;108884;1259;64141;-23
2023/06/17 11:24:49;;;;;;;4.70;2.20;;;;;;;33.76;29.55;98340.36;108906;1259;64912;-23
2023/06/17 11:27:19;;;;;;;4.80;2.70;;;;;;;33.94;27.50;98334.89;108908;1259;63765;-23
2023/06/17 11:29:49;;;;;;;3.00;2.50;;;;;;;34.11;29.45;98338.19;108922;1259;58780;-23
2023/06/17 11:32:21;;;;;;;3.30;2.60;;;;;;;34.34;29.10;98340.36;108935;1259;58788;-23
2023/06/17 11:34:51;;;;;;;3.40;2.50;;;;;;;34.37;27.97;98336.31;108824;1259;64925;-23
2023/06/17 11:37:21;;;;;;;3.80;2.50;;;;;;;34.28;26.85;98334.64;108892;1259;65736;-23
2023/06/17 11:39:55;;;;;;;2.90;2.20;;;;;;;34.02;25.88;98329.48;108937;1259;63751;-23
2023/06/17 11:42:25;;;;;;;2.70;2.30;;;;;;;34.05;28.89;98328.04;108853;1259;58695;-23
2023/06/17 11:44:54;;;;;;;3.30;2.40;;;;;;;34.18;27.84;98328.89;108886;1259;58792;-23
2023/06/17 11:47:34;;;;;;;3.10;2.40;;;;;;;34.20;27.49;98326.52;108875;1259;64944;-23